sensor_id;sensor_type;location;lat;lon;timestamp;temperature;humidity
64501;DHT22;50874;24.150;-110.320;2023-04-06T00:00:07;23.00;91.10
64501;DHT22;50874;24.150;-110.320;2023-04-06T00:02:35;23.00;91.00
64501;DHT22;50874;24.150;-110.320;2023-04-06T00:05:02;22.60;90.50
64501;DHT22;50874;24.150;-110.320;2023-04-06T00:07:28;22.30;91.40
64501;DHT22;50874;24.150;-110.320;2023-04-06T00:09:55;22.20;90.50
64501;DHT22;50874;24.150;-110.320;2023-04-06T00:12:22;22.10;89.20
64501;DHT22;50874;24.150;-110.320;2023-04-06T00:14:48;21.70;90.30
64501;DHT22;50874;24.150;-110.320;2023-04-06T00:17:15;21.70;90.70
64501;DHT22;50874;24.150;-110.320;2023-04-06T00:19:41;21.80;91.00
64501;DHT22;50874;24.150;-110.320;2023-04-06T00:22:08;21.80;90.00
64501;DHT22;50874;24.150;-110.320;2023-04-06T00:24:34;21.70;89.10
64501;DHT22;50874;24.150;-110.320;2023-04-06T00:27:01;21.80;88.50
64501;DHT22;50874;24.150;-110.320;2023-04-06T00:29:28;21.90;90.10
64501;DHT22;50874;24.150;-110.320;2023-04-06T00:31:54;22.10;90.20
64501;DHT22;50874;24.150;-110.320;2023-04-06T00:34:20;22.10;88.00
64501;DHT22;50874;24.150;-110.320;2023-04-06T00:36:47;22.10;83.80
64501;DHT22;50874;24.150;-110.320;2023-04-06T00:39:13;22.20;83.50
64501;DHT22;50874;24.150;-110.320;2023-04-06T00:41:45;22.40;82.50
64501;DHT22;50874;24.150;-110.320;2023-04-06T00:44:12;22.20;81.20
64501;DHT22;50874;24.150;-110.320;2023-04-06T00:46:39;22.00;82.00
64501;DHT22;50874;24.150;-110.320;2023-04-06T00:49:05;22.10;83.80
64501;DHT22;50874;24.150;-110.320;2023-04-06T00:51:32;22.10;84.60
64501;DHT22;50874;24.150;-110.320;2023-04-06T00:53:59;22.30;84.70
64501;DHT22;50874;24.150;-110.320;2023-04-06T00:56:25;21.80;83.20
64501;DHT22;50874;24.150;-110.320;2023-04-06T00:58:52;21.50;84.40
64501;DHT22;50874;24.150;-110.320;2023-04-06T01:01:19;21.70;84.60
64501;DHT22;50874;24.150;-110.320;2023-04-06T01:03:45;21.70;84.00
64501;DHT22;50874;24.150;-110.320;2023-04-06T01:06:14;21.70;84.10
64501;DHT22;50874;24.150;-110.320;2023-04-06T01:08:41;21.60;84.20
64501;DHT22;50874;24.150;-110.320;2023-04-06T01:11:08;21.40;85.70
64501;DHT22;50874;24.150;-110.320;2023-04-06T01:13:34;21.20;85.30
64501;DHT22;50874;24.150;-110.320;2023-04-06T01:16:01;21.10;85.80
64501;DHT22;50874;24.150;-110.320;2023-04-06T01:18:28;21.20;86.30
64501;DHT22;50874;24.150;-110.320;2023-04-06T01:20:55;21.10;86.90
64501;DHT22;50874;24.150;-110.320;2023-04-06T01:23:22;21.00;86.90
64501;DHT22;50874;24.150;-110.320;2023-04-06T01:25:49;20.80;85.90
64501;DHT22;50874;24.150;-110.320;2023-04-06T01:28:16;20.80;86.90
64501;DHT22;50874;24.150;-110.320;2023-04-06T01:30:42;20.70;86.60
64501;DHT22;50874;24.150;-110.320;2023-04-06T01:33:08;20.60;87.40
64501;DHT22;50874;24.150;-110.320;2023-04-06T01:35:35;20.50;87.80
64501;DHT22;50874;24.150;-110.320;2023-04-06T01:38:02;20.50;88.40
64501;DHT22;50874;24.150;-110.320;2023-04-06T01:40:29;20.40;88.70
64501;DHT22;50874;24.150;-110.320;2023-04-06T01:42:55;20.40;88.60
64501;DHT22;50874;24.150;-110.320;2023-04-06T01:45:21;20.40;88.90
64501;DHT22;50874;24.150;-110.320;2023-04-06T01:47:48;20.40;88.50
64501;DHT22;50874;24.150;-110.320;2023-04-06T01:50:14;20.30;88.80
64501;DHT22;50874;24.150;-110.320;2023-04-06T01:52:41;20.20;88.40
64501;DHT22;50874;24.150;-110.320;2023-04-06T01:55:07;20.20;88.10
64501;DHT22;50874;24.150;-110.320;2023-04-06T01:57:34;20.10;88.30
64501;DHT22;50874;24.150;-110.320;2023-04-06T02:00:00;20.10;88.20
64501;DHT22;50874;24.150;-110.320;2023-04-06T02:02:27;20.00;88.10
64501;DHT22;50874;24.150;-110.320;2023-04-06T02:04:53;19.90;88.40
64501;DHT22;50874;24.150;-110.320;2023-04-06T02:07:20;19.90;88.50
64501;DHT22;50874;24.150;-110.320;2023-04-06T02:09:46;19.80;88.90
64501;DHT22;50874;24.150;-110.320;2023-04-06T02:12:13;19.80;89.30
64501;DHT22;50874;24.150;-110.320;2023-04-06T02:14:39;19.80;89.00
64501;DHT22;50874;24.150;-110.320;2023-04-06T02:17:06;19.70;88.40
64501;DHT22;50874;24.150;-110.320;2023-04-06T02:19:32;19.70;88.30
64501;DHT22;50874;24.150;-110.320;2023-04-06T02:21:59;19.70;88.60
64501;DHT22;50874;24.150;-110.320;2023-04-06T02:24:25;19.60;88.50
64501;DHT22;50874;24.150;-110.320;2023-04-06T02:26:51;19.60;88.50
64501;DHT22;50874;24.150;-110.320;2023-04-06T02:29:18;19.60;88.40
64501;DHT22;50874;24.150;-110.320;2023-04-06T02:31:44;19.50;88.10
64501;DHT22;50874;24.150;-110.320;2023-04-06T02:34:11;19.50;88.00
64501;DHT22;50874;24.150;-110.320;2023-04-06T02:36:46;19.50;88.10
64501;DHT22;50874;24.150;-110.320;2023-04-06T02:39:13;19.50;88.30
64501;DHT22;50874;24.150;-110.320;2023-04-06T02:41:40;19.40;88.30
64501;DHT22;50874;24.150;-110.320;2023-04-06T02:44:08;19.40;87.60
64501;DHT22;50874;24.150;-110.320;2023-04-06T02:46:35;19.40;87.80
64501;DHT22;50874;24.150;-110.320;2023-04-06T02:49:01;19.30;87.90
64501;DHT22;50874;24.150;-110.320;2023-04-06T02:51:28;19.30;88.00
64501;DHT22;50874;24.150;-110.320;2023-04-06T02:53:54;19.30;88.20
64501;DHT22;50874;24.150;-110.320;2023-04-06T02:56:21;19.30;88.70
64501;DHT22;50874;24.150;-110.320;2023-04-06T02:58:48;19.30;88.40
64501;DHT22;50874;24.150;-110.320;2023-04-06T03:01:14;19.20;88.30
64501;DHT22;50874;24.150;-110.320;2023-04-06T03:03:41;19.20;88.20
64501;DHT22;50874;24.150;-110.320;2023-04-06T03:06:07;19.20;87.80
64501;DHT22;50874;24.150;-110.320;2023-04-06T03:08:34;19.20;87.40
64501;DHT22;50874;24.150;-110.320;2023-04-06T03:11:01;19.20;86.80
64501;DHT22;50874;24.150;-110.320;2023-04-06T03:13:27;19.10;87.20
64501;DHT22;50874;24.150;-110.320;2023-04-06T03:15:53;19.10;87.50
64501;DHT22;50874;24.150;-110.320;2023-04-06T03:18:24;19.10;86.80
64501;DHT22;50874;24.150;-110.320;2023-04-06T03:20:51;19.10;86.70
64501;DHT22;50874;24.150;-110.320;2023-04-06T03:23:21;19.10;87.70
64501;DHT22;50874;24.150;-110.320;2023-04-06T03:25:47;19.10;87.20
64501;DHT22;50874;24.150;-110.320;2023-04-06T03:28:14;19.10;88.10
64501;DHT22;50874;24.150;-110.320;2023-04-06T03:30:42;19.10;88.00
64501;DHT22;50874;24.150;-110.320;2023-04-06T03:33:08;19.00;88.40
64501;DHT22;50874;24.150;-110.320;2023-04-06T03:35:35;19.00;88.30
64501;DHT22;50874;24.150;-110.320;2023-04-06T03:38:03;18.90;88.30
64501;DHT22;50874;24.150;-110.320;2023-04-06T03:40:33;19.00;90.10
64501;DHT22;50874;24.150;-110.320;2023-04-06T03:42:59;18.90;90.40
64501;DHT22;50874;24.150;-110.320;2023-04-06T03:45:26;18.90;90.30
64501;DHT22;50874;24.150;-110.320;2023-04-06T03:47:52;18.80;89.80
64501;DHT22;50874;24.150;-110.320;2023-04-06T03:50:19;18.80;90.00
64501;DHT22;50874;24.150;-110.320;2023-04-06T03:52:45;18.80;90.30
64501;DHT22;50874;24.150;-110.320;2023-04-06T03:55:11;18.80;91.30
64501;DHT22;50874;24.150;-110.320;2023-04-06T03:57:38;18.80;91.40
64501;DHT22;50874;24.150;-110.320;2023-04-06T04:00:05;18.70;91.70
64501;DHT22;50874;24.150;-110.320;2023-04-06T04:02:32;18.70;92.20
64501;DHT22;50874;24.150;-110.320;2023-04-06T04:04:58;18.70;91.90
64501;DHT22;50874;24.150;-110.320;2023-04-06T04:07:24;18.60;92.30
64501;DHT22;50874;24.150;-110.320;2023-04-06T04:09:51;18.60;93.00
64501;DHT22;50874;24.150;-110.320;2023-04-06T04:12:17;18.60;93.60
64501;DHT22;50874;24.150;-110.320;2023-04-06T04:14:44;18.60;94.00
64501;DHT22;50874;24.150;-110.320;2023-04-06T04:17:10;18.50;94.50
64501;DHT22;50874;24.150;-110.320;2023-04-06T04:19:37;18.50;94.60
64501;DHT22;50874;24.150;-110.320;2023-04-06T04:22:03;18.50;94.50
64501;DHT22;50874;24.150;-110.320;2023-04-06T04:24:33;18.50;94.60
64501;DHT22;50874;24.150;-110.320;2023-04-06T04:27:00;18.40;94.80
64501;DHT22;50874;24.150;-110.320;2023-04-06T04:29:30;18.40;94.90
64501;DHT22;50874;24.150;-110.320;2023-04-06T04:31:57;18.40;95.00
64501;DHT22;50874;24.150;-110.320;2023-04-06T04:34:23;18.30;95.10
64501;DHT22;50874;24.150;-110.320;2023-04-06T04:36:51;18.30;95.30
64501;DHT22;50874;24.150;-110.320;2023-04-06T04:39:18;18.40;95.60
64501;DHT22;50874;24.150;-110.320;2023-04-06T04:41:44;18.40;95.80
64501;DHT22;50874;24.150;-110.320;2023-04-06T04:44:11;18.30;96.30
64501;DHT22;50874;24.150;-110.320;2023-04-06T04:46:37;18.30;96.40
64501;DHT22;50874;24.150;-110.320;2023-04-06T04:49:04;18.30;96.40
64501;DHT22;50874;24.150;-110.320;2023-04-06T04:51:30;18.30;96.20
64501;DHT22;50874;24.150;-110.320;2023-04-06T04:53:58;18.30;96.30
64501;DHT22;50874;24.150;-110.320;2023-04-06T04:56:25;18.30;96.10
64501;DHT22;50874;24.150;-110.320;2023-04-06T04:58:53;18.30;95.80
64501;DHT22;50874;24.150;-110.320;2023-04-06T05:01:19;18.30;96.00
64501;DHT22;50874;24.150;-110.320;2023-04-06T05:03:46;18.30;96.10
64501;DHT22;50874;24.150;-110.320;2023-04-06T05:06:12;18.30;95.80
64501;DHT22;50874;24.150;-110.320;2023-04-06T05:08:39;18.20;96.00
64501;DHT22;50874;24.150;-110.320;2023-04-06T05:11:05;18.30;95.80
64501;DHT22;50874;24.150;-110.320;2023-04-06T05:13:32;18.30;95.90
64501;DHT22;50874;24.150;-110.320;2023-04-06T05:15:58;18.20;96.10
64501;DHT22;50874;24.150;-110.320;2023-04-06T05:18:25;18.10;96.30
64501;DHT22;50874;24.150;-110.320;2023-04-06T05:20:52;18.10;96.60
64501;DHT22;50874;24.150;-110.320;2023-04-06T05:23:19;18.10;97.40
64501;DHT22;50874;24.150;-110.320;2023-04-06T05:25:45;18.10;97.70
64501;DHT22;50874;24.150;-110.320;2023-04-06T05:28:11;18.20;98.10
64501;DHT22;50874;24.150;-110.320;2023-04-06T05:30:40;18.20;97.70
64501;DHT22;50874;24.150;-110.320;2023-04-06T05:33:06;18.10;97.80
64501;DHT22;50874;24.150;-110.320;2023-04-06T05:35:33;18.10;98.10
64501;DHT22;50874;24.150;-110.320;2023-04-06T05:37:59;18.10;98.40
64501;DHT22;50874;24.150;-110.320;2023-04-06T05:40:26;18.10;98.70
64501;DHT22;50874;24.150;-110.320;2023-04-06T05:42:52;18.10;98.70
64501;DHT22;50874;24.150;-110.320;2023-04-06T05:45:19;18.10;98.70
64501;DHT22;50874;24.150;-110.320;2023-04-06T05:47:47;18.00;98.80
64501;DHT22;50874;24.150;-110.320;2023-04-06T05:50:16;18.00;99.00
64501;DHT22;50874;24.150;-110.320;2023-04-06T05:52:42;18.00;99.10
64501;DHT22;50874;24.150;-110.320;2023-04-06T05:55:11;18.00;99.30
64501;DHT22;50874;24.150;-110.320;2023-04-06T05:57:37;18.00;99.60
64501;DHT22;50874;24.150;-110.320;2023-04-06T06:00:05;17.90;99.50
64501;DHT22;50874;24.150;-110.320;2023-04-06T06:02:34;18.00;99.40
64501;DHT22;50874;24.150;-110.320;2023-04-06T06:05:01;18.00;99.20
64501;DHT22;50874;24.150;-110.320;2023-04-06T06:07:27;17.90;99.00
64501;DHT22;50874;24.150;-110.320;2023-04-06T06:09:57;17.90;98.70
64501;DHT22;50874;24.150;-110.320;2023-04-06T06:12:24;18.00;98.80
64501;DHT22;50874;24.150;-110.320;2023-04-06T06:14:50;18.00;98.70
64501;DHT22;50874;24.150;-110.320;2023-04-06T06:17:17;17.90;98.80
64501;DHT22;50874;24.150;-110.320;2023-04-06T06:19:43;17.90;98.90
64501;DHT22;50874;24.150;-110.320;2023-04-06T06:22:10;17.90;98.70
64501;DHT22;50874;24.150;-110.320;2023-04-06T06:24:37;17.90;98.70
64501;DHT22;50874;24.150;-110.320;2023-04-06T06:27:03;17.90;98.70
64501;DHT22;50874;24.150;-110.320;2023-04-06T06:29:29;17.80;98.90
64501;DHT22;50874;24.150;-110.320;2023-04-06T06:31:56;17.80;99.30
64501;DHT22;50874;24.150;-110.320;2023-04-06T06:34:22;17.70;99.80
64501;DHT22;50874;24.150;-110.320;2023-04-06T06:36:49;17.80;99.90
64501;DHT22;50874;24.150;-110.320;2023-04-06T06:39:15;17.80;99.50
64501;DHT22;50874;24.150;-110.320;2023-04-06T06:41:42;17.70;99.50
64501;DHT22;50874;24.150;-110.320;2023-04-06T06:44:08;17.70;99.90
64501;DHT22;50874;24.150;-110.320;2023-04-06T06:46:35;17.70;99.90
64501;DHT22;50874;24.150;-110.320;2023-04-06T06:49:01;17.70;99.90
64501;DHT22;50874;24.150;-110.320;2023-04-06T06:51:29;17.60;99.90
64501;DHT22;50874;24.150;-110.320;2023-04-06T06:53:55;17.50;99.90
64501;DHT22;50874;24.150;-110.320;2023-04-06T06:56:22;17.40;99.90
64501;DHT22;50874;24.150;-110.320;2023-04-06T06:58:49;17.30;99.90
64501;DHT22;50874;24.150;-110.320;2023-04-06T07:01:15;17.40;99.90
64501;DHT22;50874;24.150;-110.320;2023-04-06T07:03:41;17.30;99.90
64501;DHT22;50874;24.150;-110.320;2023-04-06T07:06:08;17.30;99.90
64501;DHT22;50874;24.150;-110.320;2023-04-06T07:08:34;17.20;99.90
64501;DHT22;50874;24.150;-110.320;2023-04-06T07:11:01;17.20;99.90
64501;DHT22;50874;24.150;-110.320;2023-04-06T07:13:27;17.40;99.90
64501;DHT22;50874;24.150;-110.320;2023-04-06T07:15:54;17.30;99.90
64501;DHT22;50874;24.150;-110.320;2023-04-06T07:18:21;17.40;99.90
64501;DHT22;50874;24.150;-110.320;2023-04-06T07:20:48;17.40;99.90
64501;DHT22;50874;24.150;-110.320;2023-04-06T07:23:14;17.50;99.90
64501;DHT22;50874;24.150;-110.320;2023-04-06T07:25:41;17.50;99.90
64501;DHT22;50874;24.150;-110.320;2023-04-06T07:28:08;17.60;99.90
64501;DHT22;50874;24.150;-110.320;2023-04-06T07:30:34;17.60;99.90
64501;DHT22;50874;24.150;-110.320;2023-04-06T07:33:01;17.60;99.90
64501;DHT22;50874;24.150;-110.320;2023-04-06T07:35:27;17.60;99.90
64501;DHT22;50874;24.150;-110.320;2023-04-06T07:37:56;17.60;99.90
64501;DHT22;50874;24.150;-110.320;2023-04-06T07:40:23;17.60;99.90
64501;DHT22;50874;24.150;-110.320;2023-04-06T07:42:49;17.60;99.90
64501;DHT22;50874;24.150;-110.320;2023-04-06T07:45:16;17.40;99.90
64501;DHT22;50874;24.150;-110.320;2023-04-06T07:47:42;17.40;99.90
64501;DHT22;50874;24.150;-110.320;2023-04-06T07:50:09;17.40;99.90
64501;DHT22;50874;24.150;-110.320;2023-04-06T07:52:36;17.30;99.90
64501;DHT22;50874;24.150;-110.320;2023-04-06T07:55:03;17.20;99.90
64501;DHT22;50874;24.150;-110.320;2023-04-06T07:57:29;17.20;99.90
64501;DHT22;50874;24.150;-110.320;2023-04-06T07:59:56;17.00;99.90
64501;DHT22;50874;24.150;-110.320;2023-04-06T08:02:22;17.00;99.90
64501;DHT22;50874;24.150;-110.320;2023-04-06T08:04:49;17.00;99.90
64501;DHT22;50874;24.150;-110.320;2023-04-06T08:07:15;16.90;99.90
64501;DHT22;50874;24.150;-110.320;2023-04-06T08:09:42;16.80;99.90
64501;DHT22;50874;24.150;-110.320;2023-04-06T08:12:08;16.70;99.90
64501;DHT22;50874;24.150;-110.320;2023-04-06T08:14:35;16.50;99.90
64501;DHT22;50874;24.150;-110.320;2023-04-06T08:17:01;16.40;99.90
64501;DHT22;50874;24.150;-110.320;2023-04-06T08:19:28;16.30;99.90
64501;DHT22;50874;24.150;-110.320;2023-04-06T08:21:54;16.10;99.90
64501;DHT22;50874;24.150;-110.320;2023-04-06T08:24:21;16.00;99.90
64501;DHT22;50874;24.150;-110.320;2023-04-06T08:26:47;16.00;99.90
64501;DHT22;50874;24.150;-110.320;2023-04-06T08:29:14;15.90;99.90
64501;DHT22;50874;24.150;-110.320;2023-04-06T08:31:42;15.80;99.90
64501;DHT22;50874;24.150;-110.320;2023-04-06T08:34:08;15.80;99.90
64501;DHT22;50874;24.150;-110.320;2023-04-06T08:36:34;15.70;99.90
64501;DHT22;50874;24.150;-110.320;2023-04-06T08:39:01;15.70;99.90
64501;DHT22;50874;24.150;-110.320;2023-04-06T08:41:28;15.70;99.90
64501;DHT22;50874;24.150;-110.320;2023-04-06T08:43:59;16.00;99.90
64501;DHT22;50874;24.150;-110.320;2023-04-06T08:46:26;16.10;99.90
64501;DHT22;50874;24.150;-110.320;2023-04-06T08:49:00;16.50;99.90
64501;DHT22;50874;24.150;-110.320;2023-04-06T08:51:28;16.70;99.90
64501;DHT22;50874;24.150;-110.320;2023-04-06T08:53:57;16.80;99.90
64501;DHT22;50874;24.150;-110.320;2023-04-06T08:56:28;16.80;99.90
64501;DHT22;50874;24.150;-110.320;2023-04-06T08:58:55;16.80;99.90
64501;DHT22;50874;24.150;-110.320;2023-04-06T09:01:25;16.80;99.90
64501;DHT22;50874;24.150;-110.320;2023-04-06T09:03:58;16.80;99.90
64501;DHT22;50874;24.150;-110.320;2023-04-06T09:06:25;16.70;99.90
64501;DHT22;50874;24.150;-110.320;2023-04-06T09:08:53;16.60;99.90
64501;DHT22;50874;24.150;-110.320;2023-04-06T09:11:20;16.40;99.90
64501;DHT22;50874;24.150;-110.320;2023-04-06T09:13:52;16.40;99.90
64501;DHT22;50874;24.150;-110.320;2023-04-06T09:16:20;16.40;99.90
64501;DHT22;50874;24.150;-110.320;2023-04-06T09:18:47;16.30;99.90
64501;DHT22;50874;24.150;-110.320;2023-04-06T09:21:17;16.20;99.90
64501;DHT22;50874;24.150;-110.320;2023-04-06T09:23:44;16.10;99.90
64501;DHT22;50874;24.150;-110.320;2023-04-06T09:26:12;16.00;99.90
64501;DHT22;50874;24.150;-110.320;2023-04-06T09:28:53;15.80;99.90
64501;DHT22;50874;24.150;-110.320;2023-04-06T09:31:25;15.80;99.90
64501;DHT22;50874;24.150;-110.320;2023-04-06T09:33:53;15.70;99.90
64501;DHT22;50874;24.150;-110.320;2023-04-06T09:36:30;15.60;99.90
64501;DHT22;50874;24.150;-110.320;2023-04-06T09:38:58;15.60;99.90
64501;DHT22;50874;24.150;-110.320;2023-04-06T09:41:30;15.60;99.90
64501;DHT22;50874;24.150;-110.320;2023-04-06T09:44:08;15.50;99.90
64501;DHT22;50874;24.150;-110.320;2023-04-06T09:46:39;15.40;99.90
64501;DHT22;50874;24.150;-110.320;2023-04-06T09:49:07;15.30;99.90
64501;DHT22;50874;24.150;-110.320;2023-04-06T09:54:08;15.20;99.90
64501;DHT22;50874;24.150;-110.320;2023-04-06T09:56:52;15.10;99.90
64501;DHT22;50874;24.150;-110.320;2023-04-06T10:02:32;14.90;99.90
64501;DHT22;50874;24.150;-110.320;2023-04-06T10:05:08;14.80;99.90
64501;DHT22;50874;24.150;-110.320;2023-04-06T10:07:36;14.70;99.90
64501;DHT22;50874;24.150;-110.320;2023-04-06T10:10:03;14.70;99.90
64501;DHT22;50874;24.150;-110.320;2023-04-06T10:12:30;14.60;99.90
64501;DHT22;50874;24.150;-110.320;2023-04-06T10:14:57;14.60;99.90
64501;DHT22;50874;24.150;-110.320;2023-04-06T10:17:24;14.50;99.90
64501;DHT22;50874;24.150;-110.320;2023-04-06T10:20:16;14.40;99.90
64501;DHT22;50874;24.150;-110.320;2023-04-06T10:25:32;14.40;99.90
64501;DHT22;50874;24.150;-110.320;2023-04-06T10:28:04;14.30;99.90
64501;DHT22;50874;24.150;-110.320;2023-04-06T10:30:32;14.20;99.90
64501;DHT22;50874;24.150;-110.320;2023-04-06T10:32:59;14.10;99.90
64501;DHT22;50874;24.150;-110.320;2023-04-06T10:35:39;14.10;99.90
64501;DHT22;50874;24.150;-110.320;2023-04-06T10:38:05;14.00;99.90
64501;DHT22;50874;24.150;-110.320;2023-04-06T10:40:32;14.00;99.90
64501;DHT22;50874;24.150;-110.320;2023-04-06T10:45:35;13.90;99.90
64501;DHT22;50874;24.150;-110.320;2023-04-06T10:48:16;13.90;99.90
64501;DHT22;50874;24.150;-110.320;2023-04-06T10:50:48;13.80;99.90
64501;DHT22;50874;24.150;-110.320;2023-04-06T10:55:54;13.70;99.90
64501;DHT22;50874;24.150;-110.320;2023-04-06T10:58:23;13.70;99.90
64501;DHT22;50874;24.150;-110.320;2023-04-06T11:00:51;13.80;99.90
64501;DHT22;50874;24.150;-110.320;2023-04-06T11:03:18;13.70;99.90
64501;DHT22;50874;24.150;-110.320;2023-04-06T11:05:45;13.70;99.90
64501;DHT22;50874;24.150;-110.320;2023-04-06T11:08:32;13.70;99.90
64501;DHT22;50874;24.150;-110.320;2023-04-06T11:11:12;13.70;99.90
64501;DHT22;50874;24.150;-110.320;2023-04-06T11:13:50;13.70;99.90
64501;DHT22;50874;24.150;-110.320;2023-04-06T11:16:22;13.60;99.90
64501;DHT22;50874;24.150;-110.320;2023-04-06T11:18:56;13.60;99.90
64501;DHT22;50874;24.150;-110.320;2023-04-06T11:21:37;13.60;99.90
64501;DHT22;50874;24.150;-110.320;2023-04-06T11:29:16;13.60;99.90
64501;DHT22;50874;24.150;-110.320;2023-04-06T11:31:46;13.60;99.90
64501;DHT22;50874;24.150;-110.320;2023-04-06T11:34:23;13.50;99.90
64501;DHT22;50874;24.150;-110.320;2023-04-06T11:36:55;13.50;99.90
64501;DHT22;50874;24.150;-110.320;2023-04-06T11:39:24;13.50;99.90
64501;DHT22;50874;24.150;-110.320;2023-04-06T11:41:53;13.50;99.90
64501;DHT22;50874;24.150;-110.320;2023-04-06T11:44:36;13.50;99.90
64501;DHT22;50874;24.150;-110.320;2023-04-06T11:47:06;13.60;99.90
64501;DHT22;50874;24.150;-110.320;2023-04-06T11:49:33;13.50;99.90
64501;DHT22;50874;24.150;-110.320;2023-04-06T11:52:03;13.50;99.90
64501;DHT22;50874;24.150;-110.320;2023-04-06T11:54:39;13.50;99.90
64501;DHT22;50874;24.150;-110.320;2023-04-06T11:57:08;13.50;99.90
64501;DHT22;50874;24.150;-110.320;2023-04-06T11:59:35;13.60;99.90
64501;DHT22;50874;24.150;-110.320;2023-04-06T12:02:02;13.50;99.90
64501;DHT22;50874;24.150;-110.320;2023-04-06T12:04:29;13.60;99.90
64501;DHT22;50874;24.150;-110.320;2023-04-06T12:06:57;13.90;99.90
64501;DHT22;50874;24.150;-110.320;2023-04-06T12:09:23;14.30;99.90
64501;DHT22;50874;24.150;-110.320;2023-04-06T12:11:50;14.60;99.90
64501;DHT22;50874;24.150;-110.320;2023-04-06T12:14:16;14.50;99.90
64501;DHT22;50874;24.150;-110.320;2023-04-06T12:16:43;14.50;99.90
64501;DHT22;50874;24.150;-110.320;2023-04-06T12:19:09;14.60;99.90
64501;DHT22;50874;24.150;-110.320;2023-04-06T12:21:36;14.60;99.90
64501;DHT22;50874;24.150;-110.320;2023-04-06T12:24:04;14.50;99.90
64501;DHT22;50874;24.150;-110.320;2023-04-06T12:26:31;14.50;99.90
64501;DHT22;50874;24.150;-110.320;2023-04-06T12:29:00;14.40;99.90
64501;DHT22;50874;24.150;-110.320;2023-04-06T12:31:36;14.30;99.90
64501;DHT22;50874;24.150;-110.320;2023-04-06T12:34:04;14.30;99.90
64501;DHT22;50874;24.150;-110.320;2023-04-06T12:36:31;14.20;99.90
64501;DHT22;50874;24.150;-110.320;2023-04-06T12:38:58;14.10;99.90
64501;DHT22;50874;24.150;-110.320;2023-04-06T12:41:24;14.00;99.90
64501;DHT22;50874;24.150;-110.320;2023-04-06T12:43:51;14.00;99.90
64501;DHT22;50874;24.150;-110.320;2023-04-06T12:46:17;14.20;99.90
64501;DHT22;50874;24.150;-110.320;2023-04-06T12:48:44;14.70;99.90
64501;DHT22;50874;24.150;-110.320;2023-04-06T12:51:11;15.30;99.90
64501;DHT22;50874;24.150;-110.320;2023-04-06T12:53:38;15.70;99.90
64501;DHT22;50874;24.150;-110.320;2023-04-06T12:56:15;16.00;99.90
64501;DHT22;50874;24.150;-110.320;2023-04-06T12:58:43;16.20;99.90
64501;DHT22;50874;24.150;-110.320;2023-04-06T13:01:10;16.20;99.90
64501;DHT22;50874;24.150;-110.320;2023-04-06T13:03:43;16.30;99.90
64501;DHT22;50874;24.150;-110.320;2023-04-06T13:06:10;16.40;99.90
64501;DHT22;50874;24.150;-110.320;2023-04-06T13:08:38;16.30;99.90
64501;DHT22;50874;24.150;-110.320;2023-04-06T13:11:05;16.40;99.90
64501;DHT22;50874;24.150;-110.320;2023-04-06T13:13:35;16.50;99.90
64501;DHT22;50874;24.150;-110.320;2023-04-06T13:16:07;16.50;99.90
64501;DHT22;50874;24.150;-110.320;2023-04-06T13:18:34;16.60;99.90
64501;DHT22;50874;24.150;-110.320;2023-04-06T13:21:02;16.60;99.90
64501;DHT22;50874;24.150;-110.320;2023-04-06T13:23:29;16.60;99.90
64501;DHT22;50874;24.150;-110.320;2023-04-06T13:26:03;16.50;99.90
64501;DHT22;50874;24.150;-110.320;2023-04-06T13:28:31;16.50;99.90
64501;DHT22;50874;24.150;-110.320;2023-04-06T13:31:02;16.30;99.90
64501;DHT22;50874;24.150;-110.320;2023-04-06T13:33:29;16.10;99.90
64501;DHT22;50874;24.150;-110.320;2023-04-06T13:35:57;16.00;99.90
64501;DHT22;50874;24.150;-110.320;2023-04-06T13:38:23;15.90;99.90
64501;DHT22;50874;24.150;-110.320;2023-04-06T13:40:50;15.80;99.90
64501;DHT22;50874;24.150;-110.320;2023-04-06T13:43:17;15.80;99.90
64501;DHT22;50874;24.150;-110.320;2023-04-06T13:45:50;15.80;99.90
64501;DHT22;50874;24.150;-110.320;2023-04-06T13:48:17;15.90;99.90
64501;DHT22;50874;24.150;-110.320;2023-04-06T13:50:44;15.90;99.90
64501;DHT22;50874;24.150;-110.320;2023-04-06T13:53:14;15.90;99.90
64501;DHT22;50874;24.150;-110.320;2023-04-06T13:55:40;16.00;99.90
64501;DHT22;50874;24.150;-110.320;2023-04-06T13:58:07;16.30;99.90
64501;DHT22;50874;24.150;-110.320;2023-04-06T14:00:33;16.60;99.90
64501;DHT22;50874;24.150;-110.320;2023-04-06T14:03:00;17.00;99.90
64501;DHT22;50874;24.150;-110.320;2023-04-06T14:05:30;17.20;99.90
64501;DHT22;50874;24.150;-110.320;2023-04-06T14:07:56;17.40;99.90
64501;DHT22;50874;24.150;-110.320;2023-04-06T14:10:23;17.60;99.90
64501;DHT22;50874;24.150;-110.320;2023-04-06T14:12:52;17.70;99.90
64501;DHT22;50874;24.150;-110.320;2023-04-06T14:15:19;18.00;99.90
64501;DHT22;50874;24.150;-110.320;2023-04-06T14:17:47;18.10;99.90
64501;DHT22;50874;24.150;-110.320;2023-04-06T14:20:14;18.20;99.90
64501;DHT22;50874;24.150;-110.320;2023-04-06T14:22:41;18.30;99.90
64501;DHT22;50874;24.150;-110.320;2023-04-06T14:25:11;18.50;99.90
64501;DHT22;50874;24.150;-110.320;2023-04-06T14:27:38;18.60;99.90
64501;DHT22;50874;24.150;-110.320;2023-04-06T14:30:05;19.00;99.90
64501;DHT22;50874;24.150;-110.320;2023-04-06T14:32:32;19.50;99.90
64501;DHT22;50874;24.150;-110.320;2023-04-06T14:34:58;20.00;99.90
64501;DHT22;50874;24.150;-110.320;2023-04-06T14:37:25;20.40;98.20
64501;DHT22;50874;24.150;-110.320;2023-04-06T14:39:52;21.00;97.00
64501;DHT22;50874;24.150;-110.320;2023-04-06T14:42:18;21.20;96.20
64501;DHT22;50874;24.150;-110.320;2023-04-06T14:44:44;21.40;95.10
64501;DHT22;50874;24.150;-110.320;2023-04-06T14:47:12;21.70;94.80
64501;DHT22;50874;24.150;-110.320;2023-04-06T14:49:41;21.70;94.10
64501;DHT22;50874;24.150;-110.320;2023-04-06T14:52:07;21.70;93.40
64501;DHT22;50874;24.150;-110.320;2023-04-06T14:54:34;22.00;92.60
64501;DHT22;50874;24.150;-110.320;2023-04-06T14:57:00;22.30;92.00
64501;DHT22;50874;24.150;-110.320;2023-04-06T14:59:27;22.30;91.40
64501;DHT22;50874;24.150;-110.320;2023-04-06T15:01:54;22.00;91.30
64501;DHT22;50874;24.150;-110.320;2023-04-06T15:04:20;22.40;91.30
64501;DHT22;50874;24.150;-110.320;2023-04-06T15:06:47;22.40;90.60
64501;DHT22;50874;24.150;-110.320;2023-04-06T15:09:13;22.30;89.80